Mount Airy, Maryland
Current Conditions -  °F | °C
As of 4:50 PM on Saturday 25 Oct 2014 (Local Time) from KFDK Reporting Station
Clear Clear  
Wind Chill: 75°   Ceiling: Unl
Heat Index: 75°   Visibility: 10mi
Dew Point: 37°   Wind: 14mph
Humidity: 25%   Direction: 250°WSW
Pressure: 29.97"   Gusts: 23mph
Location:  39.38°N, 77.15°W
Report Text: KFDK 252050Z 25012G20KT 10SM SKC 24/03 A2997
Loading
Personal Weather Stations






























Interactive Weather Map
Tropical Storm Tracking
New forecast layout! Learn more

10-Day Weather Forecast

Advertisements
Track Severe Weather on mobile